sensor_id;sensor_type;location;lat;lon;timestamp;pressure;altitude;pressure_sealevel;temperature;humidity
26083;BME280;13848;49.018;12.078;2022-08-01T00:00:20;97534.44;;;22.46;51.85
26083;BME280;13848;49.018;12.078;2022-08-01T00:02:46;97536.47;;;22.40;51.51
26083;BME280;13848;49.018;12.078;2022-08-01T00:05:12;97531.38;;;22.47;51.89
26083;BME280;13848;49.018;12.078;2022-08-01T00:07:38;97529.25;;;22.44;51.42
26083;BME280;13848;49.018;12.078;2022-08-01T00:10:08;97535.97;;;22.38;52.34
26083;BME280;13848;49.018;12.078;2022-08-01T00:12:34;97524.69;;;22.53;51.24
26083;BME280;13848;49.018;12.078;2022-08-01T00:15:00;97520.31;;;22.52;51.75
26083;BME280;13848;49.018;12.078;2022-08-01T00:17:26;97523.84;;;22.39;52.05
26083;BME280;13848;49.018;12.078;2022-08-01T00:19:52;97522.09;;;22.29;52.77
26083;BME280;13848;49.018;12.078;2022-08-01T00:22:18;97523.84;;;22.39;52.54
26083;BME280;13848;49.018;12.078;2022-08-01T00:24:44;97519.56;;;22.33;52.57
26083;BME280;13848;49.018;12.078;2022-08-01T00:27:12;97516.91;;;22.28;52.80
26083;BME280;13848;49.018;12.078;2022-08-01T00:29:38;97509.56;;;22.23;52.84
26083;BME280;13848;49.018;12.078;2022-08-01T00:32:04;97523.88;;;22.20;53.27
26083;BME280;13848;49.018;12.078;2022-08-01T00:34:30;97518.69;;;22.19;53.42
26083;BME280;13848;49.018;12.078;2022-08-01T00:36:56;97523.81;;;22.07;53.88
26083;BME280;13848;49.018;12.078;2022-08-01T00:39:22;97514.41;;;22.13;53.50
26083;BME280;13848;49.018;12.078;2022-08-01T00:41:48;97522.69;;;22.08;53.41
26083;BME280;13848;49.018;12.078;2022-08-01T00:44:15;97516.66;;;22.11;53.44
26083;BME280;13848;49.018;12.078;2022-08-01T00:46:42;97514.34;;;21.99;53.79
26083;BME280;13848;49.018;12.078;2022-08-01T00:49:08;97515.31;;;21.89;54.04
26083;BME280;13848;49.018;12.078;2022-08-01T00:51:34;97519.69;;;21.90;53.47
26083;BME280;13848;49.018;12.078;2022-08-01T00:54:00;97511.72;;;21.75;54.08
26083;BME280;13848;49.018;12.078;2022-08-01T00:56:27;97516.59;;;21.78;53.89
26083;BME280;13848;49.018;12.078;2022-08-01T00:58:55;97516.16;;;21.71;54.31
26083;BME280;13848;49.018;12.078;2022-08-01T01:01:22;97507.94;;;21.71;54.19
26083;BME280;13848;49.018;12.078;2022-08-01T01:03:49;97495.91;;;21.67;54.19
26083;BME280;13848;49.018;12.078;2022-08-01T01:06:25;97508.97;;;21.75;53.96
26083;BME280;13848;49.018;12.078;2022-08-01T01:08:58;97513.91;;;21.73;54.41
26083;BME280;13848;49.018;12.078;2022-08-01T01:11:30;97517.94;;;21.43;55.22
26083;BME280;13848;49.018;12.078;2022-08-01T01:14:01;97512.75;;;21.41;55.04
26083;BME280;13848;49.018;12.078;2022-08-01T01:16:32;97514.06;;;21.44;55.07
26083;BME280;13848;49.018;12.078;2022-08-01T01:19:01;97515.25;;;21.38;54.97
26083;BME280;13848;49.018;12.078;2022-08-01T01:21:39;97515.06;;;21.34;55.31
26083;BME280;13848;49.018;12.078;2022-08-01T01:24:20;97523.59;;;21.51;54.81
26083;BME280;13848;49.018;12.078;2022-08-01T01:26:52;97509.41;;;21.44;54.79
26083;BME280;13848;49.018;12.078;2022-08-01T01:29:27;97524.97;;;21.30;55.55
26083;BME280;13848;49.018;12.078;2022-08-01T01:31:59;97517.97;;;21.19;55.70
26083;BME280;13848;49.018;12.078;2022-08-01T01:34:28;97525.31;;;21.23;55.67
26083;BME280;13848;49.018;12.078;2022-08-01T01:36:56;97519.44;;;21.35;55.67
26083;BME280;13848;49.018;12.078;2022-08-01T01:39:25;97522.03;;;21.21;55.89
26083;BME280;13848;49.018;12.078;2022-08-01T01:41:55;97519.91;;;21.18;56.13
26083;BME280;13848;49.018;12.078;2022-08-01T01:44:22;97522.13;;;21.16;56.16
26083;BME280;13848;49.018;12.078;2022-08-01T01:46:51;97515.22;;;21.19;56.27
26083;BME280;13848;49.018;12.078;2022-08-01T01:49:19;97518.09;;;21.09;56.82
26083;BME280;13848;49.018;12.078;2022-08-01T01:51:47;97515.78;;;21.16;56.36
26083;BME280;13848;49.018;12.078;2022-08-01T01:54:14;97513.59;;;21.18;56.36
26083;BME280;13848;49.018;12.078;2022-08-01T01:56:41;97516.75;;;21.30;56.02
26083;BME280;13848;49.018;12.078;2022-08-01T01:59:07;97516.91;;;21.15;56.23
26083;BME280;13848;49.018;12.078;2022-08-01T02:01:34;97519.81;;;21.23;56.31
26083;BME280;13848;49.018;12.078;2022-08-01T02:04:02;97513.22;;;21.24;56.17
26083;BME280;13848;49.018;12.078;2022-08-01T02:06:29;97517.09;;;21.23;56.22
26083;BME280;13848;49.018;12.078;2022-08-01T02:08:57;97522.28;;;21.25;56.29
26083;BME280;13848;49.018;12.078;2022-08-01T02:11:25;97520.53;;;21.34;55.57
26083;BME280;13848;49.018;12.078;2022-08-01T02:13:54;97513.59;;;21.18;56.13
26083;BME280;13848;49.018;12.078;2022-08-01T02:16:23;97513.47;;;21.28;56.00
26083;BME280;13848;49.018;12.078;2022-08-01T02:18:50;97519.53;;;21.25;56.67
26083;BME280;13848;49.018;12.078;2022-08-01T02:21:26;97508.19;;;21.13;56.68
26083;BME280;13848;49.018;12.078;2022-08-01T02:23:55;97522.78;;;21.27;56.25
26083;BME280;13848;49.018;12.078;2022-08-01T02:26:27;97515.16;;;21.24;56.29
26083;BME280;13848;49.018;12.078;2022-08-01T02:28:57;97508.53;;;21.30;55.21
26083;BME280;13848;49.018;12.078;2022-08-01T02:31:25;97508.13;;;21.18;55.24
26083;BME280;13848;49.018;12.078;2022-08-01T02:33:57;97530.84;;;21.42;54.42
26083;BME280;13848;49.018;12.078;2022-08-01T02:36:28;97533.72;;;21.51;54.45
26083;BME280;13848;49.018;12.078;2022-08-01T02:38:55;97526.47;;;21.41;53.80
26083;BME280;13848;49.018;12.078;2022-08-01T02:41:23;97519.81;;;21.47;53.69
26083;BME280;13848;49.018;12.078;2022-08-01T02:43:52;97526.91;;;21.48;54.26
26083;BME280;13848;49.018;12.078;2022-08-01T02:46:33;97528.97;;;21.57;53.78
26083;BME280;13848;49.018;12.078;2022-08-01T02:49:02;97529.66;;;21.67;51.61
26083;BME280;13848;49.018;12.078;2022-08-01T02:51:32;97530.56;;;21.63;51.94
26083;BME280;13848;49.018;12.078;2022-08-01T02:54:01;97530.84;;;21.61;51.54
26083;BME280;13848;49.018;12.078;2022-08-01T02:56:29;97539.66;;;21.77;50.51
26083;BME280;13848;49.018;12.078;2022-08-01T02:58:57;97539.75;;;21.72;50.84
26083;BME280;13848;49.018;12.078;2022-08-01T03:01:23;97539.06;;;21.80;49.86
26083;BME280;13848;49.018;12.078;2022-08-01T03:03:49;97551.47;;;21.77;49.60
26083;BME280;13848;49.018;12.078;2022-08-01T03:06:16;97536.91;;;21.77;49.06
26083;BME280;13848;49.018;12.078;2022-08-01T03:08:44;97539.06;;;21.80;49.29
26083;BME280;13848;49.018;12.078;2022-08-01T03:11:13;97535.16;;;21.86;49.07
26083;BME280;13848;49.018;12.078;2022-08-01T03:13:41;97543.00;;;21.93;48.64
26083;BME280;13848;49.018;12.078;2022-08-01T03:16:09;97549.50;;;21.97;48.14
26083;BME280;13848;49.018;12.078;2022-08-01T03:18:36;97547.06;;;21.95;48.22
26083;BME280;13848;49.018;12.078;2022-08-01T03:21:06;97541.00;;;21.98;47.94
26083;BME280;13848;49.018;12.078;2022-08-01T03:23:36;97541.00;;;21.98;47.50
26083;BME280;13848;49.018;12.078;2022-08-01T03:26:05;97549.72;;;22.00;47.51
26083;BME280;13848;49.018;12.078;2022-08-01T03:28:32;97550.53;;;22.01;47.91
26083;BME280;13848;49.018;12.078;2022-08-01T03:30:58;97556.25;;;22.04;47.89
26083;BME280;13848;49.018;12.078;2022-08-01T03:33:26;97548.19;;;21.94;48.07
26083;BME280;13848;49.018;12.078;2022-08-01T03:35:54;97554.34;;;22.05;47.79
26083;BME280;13848;49.018;12.078;2022-08-01T03:38:23;97565.78;;;21.93;48.50
26083;BME280;13848;49.018;12.078;2022-08-01T03:40:52;97558.03;;;21.95;49.97
26083;BME280;13848;49.018;12.078;2022-08-01T03:43:25;97563.09;;;21.88;51.55
26083;BME280;13848;49.018;12.078;2022-08-01T03:45:52;97563.75;;;21.80;52.18
26083;BME280;13848;49.018;12.078;2022-08-01T03:48:22;97564.50;;;21.86;51.34
26083;BME280;13848;49.018;12.078;2022-08-01T03:50:53;97569.47;;;21.84;50.48
26083;BME280;13848;49.018;12.078;2022-08-01T03:53:23;97559.09;;;21.62;51.34
26083;BME280;13848;49.018;12.078;2022-08-01T03:55:51;97579.28;;;21.71;50.39
26083;BME280;13848;49.018;12.078;2022-08-01T03:58:20;97568.88;;;21.68;49.71
26083;BME280;13848;49.018;12.078;2022-08-01T04:00:47;97566.94;;;21.68;50.42
26083;BME280;13848;49.018;12.078;2022-08-01T04:03:14;97574.59;;;21.71;48.92
26083;BME280;13848;49.018;12.078;2022-08-01T04:05:41;97578.09;;;21.77;49.40
26083;BME280;13848;49.018;12.078;2022-08-01T04:08:07;97578.31;;;21.81;48.95
26083;BME280;13848;49.018;12.078;2022-08-01T04:10:33;97560.06;;;21.71;48.88
26083;BME280;13848;49.018;12.078;2022-08-01T04:12:59;97579.34;;;21.85;48.37
26083;BME280;13848;49.018;12.078;2022-08-01T04:15:27;97575.28;;;21.82;48.42
26083;BME280;13848;49.018;12.078;2022-08-01T04:17:53;97576.53;;;21.90;48.00
26083;BME280;13848;49.018;12.078;2022-08-01T04:20:19;97580.00;;;21.95;47.91
26083;BME280;13848;49.018;12.078;2022-08-01T04:22:45;97583.09;;;22.08;48.26
26083;BME280;13848;49.018;12.078;2022-08-01T04:25:21;97581.25;;;22.03;48.09
26083;BME280;13848;49.018;12.078;2022-08-01T04:27:49;97589.22;;;22.04;47.66
26083;BME280;13848;49.018;12.078;2022-08-01T04:30:17;97592.03;;;21.99;48.16
26083;BME280;13848;49.018;12.078;2022-08-01T04:32:47;97604.25;;;22.07;47.45
26083;BME280;13848;49.018;12.078;2022-08-01T04:35:15;97606.66;;;22.14;47.65
26083;BME280;13848;49.018;12.078;2022-08-01T04:37:44;97604.72;;;22.14;47.68
26083;BME280;13848;49.018;12.078;2022-08-01T04:40:12;97601.47;;;22.12;47.52
26083;BME280;13848;49.018;12.078;2022-08-01T04:42:38;97595.69;;;22.14;47.54
26083;BME280;13848;49.018;12.078;2022-08-01T04:45:06;97608.66;;;22.27;47.31
26083;BME280;13848;49.018;12.078;2022-08-01T04:47:32;97604.72;;;22.14;47.60
26083;BME280;13848;49.018;12.078;2022-08-01T04:50:04;97608.81;;;22.17;47.58
26083;BME280;13848;49.018;12.078;2022-08-01T04:52:33;97603.19;;;22.27;47.03
26083;BME280;13848;49.018;12.078;2022-08-01T04:54:59;97614.75;;;22.24;46.94
26083;BME280;13848;49.018;12.078;2022-08-01T04:57:25;97619.28;;;22.34;47.18
26083;BME280;13848;49.018;12.078;2022-08-01T04:59:51;97622.69;;;22.25;47.51
26083;BME280;13848;49.018;12.078;2022-08-01T05:02:18;97629.44;;;22.33;47.10
26083;BME280;13848;49.018;12.078;2022-08-01T05:04:45;97627.22;;;22.35;47.17
26083;BME280;13848;49.018;12.078;2022-08-01T05:07:13;97634.22;;;22.27;47.60
26083;BME280;13848;49.018;12.078;2022-08-01T05:09:40;97642.56;;;22.36;47.65
26083;BME280;13848;49.018;12.078;2022-08-01T05:12:07;97644.84;;;22.15;48.51
26083;BME280;13848;49.018;12.078;2022-08-01T05:14:34;97639.09;;;22.12;48.54
26083;BME280;13848;49.018;12.078;2022-08-01T05:17:01;97634.44;;;22.12;48.55
26083;BME280;13848;49.018;12.078;2022-08-01T05:19:27;97652.22;;;22.15;48.51
26083;BME280;13848;49.018;12.078;2022-08-01T05:21:53;97652.63;;;22.27;48.15
26083;BME280;13848;49.018;12.078;2022-08-01T05:24:20;97653.94;;;22.29;48.03
26083;BME280;13848;49.018;12.078;2022-08-01T05:26:46;97653.63;;;22.31;47.75
26083;BME280;13848;49.018;12.078;2022-08-01T05:29:12;97654.16;;;22.33;48.05
26083;BME280;13848;49.018;12.078;2022-08-01T05:31:38;97661.34;;;22.48;47.86
26083;BME280;13848;49.018;12.078;2022-08-01T05:34:04;97658.81;;;22.51;47.90
26083;BME280;13848;49.018;12.078;2022-08-01T05:36:30;97652.16;;;22.71;47.71
26083;BME280;13848;49.018;12.078;2022-08-01T05:38:56;97662.16;;;22.81;47.93
26083;BME280;13848;49.018;12.078;2022-08-01T05:41:23;97653.69;;;22.96;48.09
26083;BME280;13848;49.018;12.078;2022-08-01T05:43:49;97651.53;;;22.93;48.14
26083;BME280;13848;49.018;12.078;2022-08-01T05:46:15;97657.34;;;23.05;47.58
26083;BME280;13848;49.018;12.078;2022-08-01T05:48:42;97667.75;;;23.08;48.05
26083;BME280;13848;49.018;12.078;2022-08-01T05:51:07;97668.16;;;23.16;47.92
26083;BME280;13848;49.018;12.078;2022-08-01T05:53:33;97667.75;;;23.22;47.55
26083;BME280;13848;49.018;12.078;2022-08-01T05:56:00;97671.41;;;23.18;47.47
26083;BME280;13848;49.018;12.078;2022-08-01T05:58:28;97667.75;;;23.22;47.62
26083;BME280;13848;49.018;12.078;2022-08-01T06:00:54;97664.78;;;23.19;48.32
26083;BME280;13848;49.018;12.078;2022-08-01T06:03:20;97676.97;;;23.31;47.52
26083;BME280;13848;49.018;12.078;2022-08-01T06:05:46;97673.56;;;23.34;47.51
26083;BME280;13848;49.018;12.078;2022-08-01T06:08:12;97670.31;;;23.32;47.35
26083;BME280;13848;49.018;12.078;2022-08-01T06:10:38;97663.19;;;23.45;47.59
26083;BME280;13848;49.018;12.078;2022-08-01T06:13:04;97667.28;;;23.61;47.25
26083;BME280;13848;49.018;12.078;2022-08-01T06:15:31;97675.97;;;23.69;46.93
26083;BME280;13848;49.018;12.078;2022-08-01T06:17:58;97679.22;;;23.71;47.50
26083;BME280;13848;49.018;12.078;2022-08-01T06:20:24;97678.59;;;23.74;47.07
26083;BME280;13848;49.018;12.078;2022-08-01T06:22:50;97684.94;;;23.74;48.39
26083;BME280;13848;49.018;12.078;2022-08-01T06:25:16;97692.66;;;23.86;47.89
26083;BME280;13848;49.018;12.078;2022-08-01T06:27:42;97685.31;;;23.95;47.20
26083;BME280;13848;49.018;12.078;2022-08-01T06:30:08;97685.78;;;24.11;47.17
26083;BME280;13848;49.018;12.078;2022-08-01T06:32:36;97693.00;;;24.21;46.95
26083;BME280;13848;49.018;12.078;2022-08-01T06:35:03;97687.72;;;24.24;46.68
26083;BME280;13848;49.018;12.078;2022-08-01T06:37:30;97690.84;;;24.31;46.48
26083;BME280;13848;49.018;12.078;2022-08-01T06:39:56;97688.28;;;24.35;46.33
26083;BME280;13848;49.018;12.078;2022-08-01T06:42:22;97678.84;;;24.50;46.13
26083;BME280;13848;49.018;12.078;2022-08-01T06:44:48;97692.53;;;24.55;46.13
26083;BME280;13848;49.018;12.078;2022-08-01T06:47:14;97688.19;;;24.62;46.01
26083;BME280;13848;49.018;12.078;2022-08-01T06:49:42;97688.56;;;24.69;45.39
26083;BME280;13848;49.018;12.078;2022-08-01T06:52:08;97689.41;;;24.70;45.62
26083;BME280;13848;49.018;12.078;2022-08-01T06:54:34;97688.97;;;24.77;45.21
26083;BME280;13848;49.018;12.078;2022-08-01T06:57:00;97686.09;;;24.82;44.96
26083;BME280;13848;49.018;12.078;2022-08-01T06:59:26;97692.41;;;24.82;45.13
26083;BME280;13848;49.018;12.078;2022-08-01T07:01:52;97687.94;;;24.73;45.14
26083;BME280;13848;49.018;12.078;2022-08-01T07:04:18;97692.91;;;24.84;44.88
26083;BME280;13848;49.018;12.078;2022-08-01T07:06:45;97687.25;;;24.67;45.67
26083;BME280;13848;49.018;12.078;2022-08-01T07:09:11;97691.19;;;24.75;45.38
26083;BME280;13848;49.018;12.078;2022-08-01T07:11:37;97700.34;;;24.84;45.54
26083;BME280;13848;49.018;12.078;2022-08-01T07:14:03;97697.84;;;24.96;45.08
26083;BME280;13848;49.018;12.078;2022-08-01T07:16:29;97700.63;;;25.05;44.84
26083;BME280;13848;49.018;12.078;2022-08-01T07:18:55;97694.44;;;25.21;44.72
26083;BME280;13848;49.018;12.078;2022-08-01T07:21:21;97699.34;;;25.25;44.82
26083;BME280;13848;49.018;12.078;2022-08-01T07:23:49;97697.97;;;25.13;44.85
26083;BME280;13848;49.018;12.078;2022-08-01T07:26:15;97697.53;;;25.20;44.89
26083;BME280;13848;49.018;12.078;2022-08-01T07:28:41;97705.22;;;25.32;44.75
26083;BME280;13848;49.018;12.078;2022-08-01T07:31:07;97713.00;;;25.30;44.85
26083;BME280;13848;49.018;12.078;2022-08-01T07:33:33;97710.56;;;25.28;45.10
26083;BME280;13848;49.018;12.078;2022-08-01T07:35:59;97713.53;;;25.40;44.76
26083;BME280;13848;49.018;12.078;2022-08-01T07:38:25;97707.72;;;25.51;44.68
26083;BME280;13848;49.018;12.078;2022-08-01T07:40:52;97702.25;;;25.59;44.28
26083;BME280;13848;49.018;12.078;2022-08-01T07:43:18;97690.72;;;25.57;44.25
26083;BME280;13848;49.018;12.078;2022-08-01T07:45:44;97714.63;;;25.70;44.06
26083;BME280;13848;49.018;12.078;2022-08-01T07:48:10;97710.78;;;25.80;43.85
26083;BME280;13848;49.018;12.078;2022-08-01T07:50:36;97707.88;;;25.85;44.02
26083;BME280;13848;49.018;12.078;2022-08-01T07:53:02;97703.00;;;25.91;43.10
26083;BME280;13848;49.018;12.078;2022-08-01T07:55:28;97719.63;;;25.99;43.42
26083;BME280;13848;49.018;12.078;2022-08-01T07:57:55;97710.38;;;26.04;43.08
26083;BME280;13848;49.018;12.078;2022-08-01T08:00:22;97709.25;;;26.14;43.14
26083;BME280;13848;49.018;12.078;2022-08-01T08:02:48;97718.84;;;26.16;42.88
26083;BME280;13848;49.018;12.078;2022-08-01T08:05:14;97717.88;;;26.30;42.89
26083;BME280;13848;49.018;12.078;2022-08-01T08:07:40;97717.59;;;26.40;42.93
26083;BME280;13848;49.018;12.078;2022-08-01T08:10:07;97694.31;;;26.32;42.51
26083;BME280;13848;49.018;12.078;2022-08-01T08:12:33;97711.41;;;26.43;42.52
26083;BME280;13848;49.018;12.078;2022-08-01T08:15:01;97702.44;;;26.29;42.40
26083;BME280;13848;49.018;12.078;2022-08-01T08:17:27;97712.56;;;26.42;42.30
26083;BME280;13848;49.018;12.078;2022-08-01T08:19:53;97712.41;;;26.47;42.05
26083;BME280;13848;49.018;12.078;2022-08-01T08:22:19;97713.72;;;26.58;42.11
26083;BME280;13848;49.018;12.078;2022-08-01T08:24:45;97721.19;;;26.66;41.86
26083;BME280;13848;49.018;12.078;2022-08-01T08:27:11;97712.72;;;26.71;41.93
26083;BME280;13848;49.018;12.078;2022-08-01T08:29:38;97709.47;;;26.69;41.67
26083;BME280;13848;49.018;12.078;2022-08-01T08:32:06;97701.16;;;26.78;41.05
26083;BME280;13848;49.018;12.078;2022-08-01T08:34:32;97703.78;;;26.66;41.34
26083;BME280;13848;49.018;12.078;2022-08-01T08:36:58;97715.66;;;26.66;41.53
26083;BME280;13848;49.018;12.078;2022-08-01T08:39:24;97710.94;;;26.75;41.53
26083;BME280;13848;49.018;12.078;2022-08-01T08:41:51;97710.13;;;26.66;41.82
26083;BME280;13848;49.018;12.078;2022-08-01T08:44:18;97715.16;;;26.73;41.47
26083;BME280;13848;49.018;12.078;2022-08-01T08:46:45;97718.78;;;26.56;41.76
26083;BME280;13848;49.018;12.078;2022-08-01T08:49:17;97712.41;;;26.56;42.58
26083;BME280;13848;49.018;12.078;2022-08-01T08:51:44;97715.00;;;26.52;42.09
26083;BME280;13848;49.018;12.078;2022-08-01T08:54:13;97713.72;;;26.58;41.83
26083;BME280;13848;49.018;12.078;2022-08-01T08:56:40;97720.53;;;26.61;41.73
26083;BME280;13848;49.018;12.078;2022-08-01T08:59:07;97717.78;;;26.69;41.70
26083;BME280;13848;49.018;12.078;2022-08-01T09:01:33;97730.13;;;26.72;41.92
26083;BME280;13848;49.018;12.078;2022-08-01T09:04:00;97724.59;;;26.72;41.66
26083;BME280;13848;49.018;12.078;2022-08-01T09:06:28;97718.25;;;26.89;41.17
26083;BME280;13848;49.018;12.078;2022-08-01T09:08:54;97726.38;;;26.94;41.73
26083;BME280;13848;49.018;12.078;2022-08-01T09:11:20;97726.38;;;26.94;41.68
26083;BME280;13848;49.018;12.078;2022-08-01T09:14:01;97722.63;;;27.07;41.21
26083;BME280;13848;49.018;12.078;2022-08-01T09:16:27;97727.06;;;27.08;41.24
26083;BME280;13848;49.018;12.078;2022-08-01T09:18:54;97717.19;;;27.37;40.45
26083;BME280;13848;49.018;12.078;2022-08-01T09:21:33;97717.66;;;27.47;39.76
26083;BME280;13848;49.018;12.078;2022-08-01T09:23:59;97720.41;;;27.56;39.42
26083;BME280;13848;49.018;12.078;2022-08-01T09:26:29;97723.47;;;27.72;39.72
26083;BME280;13848;49.018;12.078;2022-08-01T09:28:57;97727.63;;;27.87;39.33
26083;BME280;13848;49.018;12.078;2022-08-01T09:31:26;97713.38;;;27.97;38.91
26083;BME280;13848;49.018;12.078;2022-08-01T09:33:54;97711.66;;;28.13;38.68
26083;BME280;13848;49.018;12.078;2022-08-01T09:36:22;97714.28;;;28.09;38.08
26083;BME280;13848;49.018;12.078;2022-08-01T09:38:51;97713.50;;;28.00;37.83
26083;BME280;13848;49.018;12.078;2022-08-01T09:41:28;97710.81;;;27.92;38.20
26083;BME280;13848;49.018;12.078;2022-08-01T09:43:55;97713.31;;;27.76;38.13
26083;BME280;13848;49.018;12.078;2022-08-01T09:46:21;97713.88;;;27.61;38.15
26083;BME280;13848;49.018;12.078;2022-08-01T09:48:58;97714.19;;;27.59;38.25
26083;BME280;13848;49.018;12.078;2022-08-01T09:51:28;97727.69;;;27.69;37.81
26083;BME280;13848;49.018;12.078;2022-08-01T09:53:56;97730.75;;;27.76;37.83
26083;BME280;13848;49.018;12.078;2022-08-01T09:56:23;97724.50;;;27.88;37.85
26083;BME280;13848;49.018;12.078;2022-08-01T09:58:50;97719.59;;;27.94;38.11
26083;BME280;13848;49.018;12.078;2022-08-01T10:01:20;97715.78;;;28.07;38.19
26083;BME280;13848;49.018;12.078;2022-08-01T10:03:46;97720.91;;;28.17;37.80
26083;BME280;13848;49.018;12.078;2022-08-01T10:06:19;97719.28;;;28.46;37.53
26083;BME280;13848;49.018;12.078;2022-08-01T10:08:46;97716.44;;;28.54;37.22
26083;BME280;13848;49.018;12.078;2022-08-01T10:11:13;97723.34;;;28.69;36.71
26083;BME280;13848;49.018;12.078;2022-08-01T10:13:40;97713.94;;;28.61;36.52
26083;BME280;13848;49.018;12.078;2022-08-01T10:16:07;97719.28;;;28.67;36.32
26083;BME280;13848;49.018;12.078;2022-08-01T10:18:34;97704.25;;;28.47;35.65
26083;BME280;13848;49.018;12.078;2022-08-01T10:21:01;97709.59;;;28.52;36.19
26083;BME280;13848;49.018;12.078;2022-08-01T10:23:34;97699.19;;;28.49;36.60
26083;BME280;13848;49.018;12.078;2022-08-01T10:26:01;97693.09;;;28.76;36.13
26083;BME280;13848;49.018;12.078;2022-08-01T10:28:30;97694.91;;;28.72;36.24
26083;BME280;13848;49.018;12.078;2022-08-01T10:30:56;97685.69;;;28.80;35.67
26083;BME280;13848;49.018;12.078;2022-08-01T10:33:23;97689.63;;;28.79;35.94
26083;BME280;13848;49.018;12.078;2022-08-01T10:35:50;97687.59;;;28.88;35.70
26083;BME280;13848;49.018;12.078;2022-08-01T10:38:16;97679.72;;;28.90;34.99
26083;BME280;13848;49.018;12.078;2022-08-01T10:40:43;97677.13;;;28.94;35.38
26083;BME280;13848;49.018;12.078;2022-08-01T10:43:09;97664.69;;;28.92;33.51
26083;BME280;13848;49.018;12.078;2022-08-01T10:45:37;97674.97;;;29.12;33.32
26083;BME280;13848;49.018;12.078;2022-08-01T10:48:09;97677.56;;;29.29;34.05
26083;BME280;13848;49.018;12.078;2022-08-01T10:50:41;97686.13;;;29.36;33.81
26083;BME280;13848;49.018;12.078;2022-08-01T10:53:13;97680.69;;;29.40;33.24
26083;BME280;13848;49.018;12.078;2022-08-01T10:55:47;97666.44;;;29.41;33.79
26083;BME280;13848;49.018;12.078;2022-08-01T10:58:13;97672.00;;;29.41;33.39
26083;BME280;13848;49.018;12.078;2022-08-01T11:00:41;97677.75;;;29.24;33.32
26083;BME280;13848;49.018;12.078;2022-08-01T11:03:07;97676.63;;;29.37;32.56
26083;BME280;13848;49.018;12.078;2022-08-01T11:05:34;97680.44;;;29.33;32.87
26083;BME280;13848;49.018;12.078;2022-08-01T11:08:02;97673.63;;;29.42;33.04
26083;BME280;13848;49.018;12.078;2022-08-01T11:10:34;97671.09;;;29.62;33.33
26083;BME280;13848;49.018;12.078;2022-08-01T11:13:02;97671.56;;;29.52;33.18
26083;BME280;13848;49.018;12.078;2022-08-01T11:15:28;97673.28;;;29.44;33.10
26083;BME280;13848;49.018;12.078;2022-08-01T11:17:57;97674.66;;;29.38;34.09
26083;BME280;13848;49.018;12.078;2022-08-01T11:20:25;97676.63;;;29.50;32.99
26083;BME280;13848;49.018;12.078;2022-08-01T11:23:25;97672.69;;;29.51;33.47
26083;BME280;13848;49.018;12.078;2022-08-01T11:26:11;97668.47;;;29.65;33.36
26083;BME280;13848;49.018;12.078;2022-08-01T11:28:38;97664.88;;;29.65;33.31
26083;BME280;13848;49.018;12.078;2022-08-01T11:31:30;97666.00;;;29.52;33.39
26083;BME280;13848;49.018;12.078;2022-08-01T11:33:58;97662.91;;;29.53;32.69
26083;BME280;13848;49.018;12.078;2022-08-01T11:36:24;97671.34;;;29.57;32.91
26083;BME280;13848;49.018;12.078;2022-08-01T11:39:13;97669.69;;;29.43;32.80
26083;BME280;13848;49.018;12.078;2022-08-01T11:41:40;97674.41;;;29.19;33.26
26083;BME280;13848;49.018;12.078;2022-08-01T11:44:08;97674.38;;;29.06;33.12
26083;BME280;13848;49.018;12.078;2022-08-01T11:46:55;97680.78;;;29.31;33.39
26083;BME280;13848;49.018;12.078;2022-08-01T11:49:30;97664.06;;;29.64;33.00
26083;BME280;13848;49.018;12.078;2022-08-01T11:51:58;97670.53;;;29.93;33.35
26083;BME280;13848;49.018;12.078;2022-08-01T11:54:26;97663.44;;;30.20;31.65
26083;BME280;13848;49.018;12.078;2022-08-01T11:56:55;97670.59;;;30.45;31.62
26083;BME280;13848;49.018;12.078;2022-08-01T11:59:21;97658.03;;;30.52;31.75
26083;BME280;13848;49.018;12.078;2022-08-01T12:01:47;97661.69;;;30.68;31.43
26083;BME280;13848;49.018;12.078;2022-08-01T12:04:13;97668.91;;;30.69;30.86
26083;BME280;13848;49.018;12.078;2022-08-01T12:06:41;97650.97;;;30.82;30.20
26083;BME280;13848;49.018;12.078;2022-08-01T12:09:20;97659.25;;;30.94;30.50
26083;BME280;13848;49.018;12.078;2022-08-01T12:11:47;97661.13;;;30.90;29.85
26083;BME280;13848;49.018;12.078;2022-08-01T12:14:20;97655.91;;;30.61;28.98
26083;BME280;13848;49.018;12.078;2022-08-01T12:16:53;97661.28;;;30.54;29.58
26083;BME280;13848;49.018;12.078;2022-08-01T12:19:21;97655.91;;;30.33;29.97
26083;BME280;13848;49.018;12.078;2022-08-01T12:22:06;97652.69;;;29.94;30.46
26083;BME280;13848;49.018;12.078;2022-08-01T12:24:33;97665.31;;;29.79;31.02
26083;BME280;13848;49.018;12.078;2022-08-01T12:26:59;97653.63;;;29.74;31.75
26083;BME280;13848;49.018;12.078;2022-08-01T12:29:33;97664.53;;;29.54;31.57
26083;BME280;13848;49.018;12.078;2022-08-01T12:31:59;97656.97;;;29.42;32.39
26083;BME280;13848;49.018;12.078;2022-08-01T12:34:25;97663.31;;;29.43;31.87
26083;BME280;13848;49.018;12.078;2022-08-01T12:36:51;97667.25;;;29.42;33.49
26083;BME280;13848;49.018;12.078;2022-08-01T12:39:19;97666.22;;;29.34;32.25
26083;BME280;13848;49.018;12.078;2022-08-01T12:41:45;97663.78;;;29.45;32.38
26083;BME280;13848;49.018;12.078;2022-08-01T12:44:13;97667.94;;;29.39;32.35
26083;BME280;13848;49.018;12.078;2022-08-01T12:46:39;97661.31;;;29.19;33.21
26083;BME280;13848;49.018;12.078;2022-08-01T12:49:05;97656.50;;;29.28;33.12
26083;BME280;13848;49.018;12.078;2022-08-01T12:51:32;97662.72;;;29.25;33.50
26083;BME280;13848;49.018;12.078;2022-08-01T12:53:58;97652.78;;;29.36;32.32